sensor_id;sensor_type;location;lat;lon;timestamp;temperature;humidity
52656;SHT85;35474;51.032;6.998;2022-07-05T00:00:35;18.44;65.64
52656;SHT85;35474;51.032;6.998;2022-07-05T00:03:02;18.36;65.85
52656;SHT85;35474;51.032;6.998;2022-07-05T00:05:29;18.36;65.88
52656;SHT85;35474;51.032;6.998;2022-07-05T00:07:55;18.27;66.41
52656;SHT85;35474;51.032;6.998;2022-07-05T00:10:22;18.37;65.91
52656;SHT85;35474;51.032;6.998;2022-07-05T00:12:48;18.37;66.14
52656;SHT85;35474;51.032;6.998;2022-07-05T00:15:15;18.32;66.22
52656;SHT85;35474;51.032;6.998;2022-07-05T00:17:41;18.16;66.74
52656;SHT85;35474;51.032;6.998;2022-07-05T00:20:08;18.19;66.88
52656;SHT85;35474;51.032;6.998;2022-07-05T00:22:35;18.19;66.73
52656;SHT85;35474;51.032;6.998;2022-07-05T00:25:01;18.25;66.19
52656;SHT85;35474;51.032;6.998;2022-07-05T00:27:28;18.16;66.54
52656;SHT85;35474;51.032;6.998;2022-07-05T00:29:55;18.10;66.35
52656;SHT85;35474;51.032;6.998;2022-07-05T00:32:21;18.25;66.00
52656;SHT85;35474;51.032;6.998;2022-07-05T00:34:48;18.22;65.90
52656;SHT85;35474;51.032;6.998;2022-07-05T00:37:14;18.23;65.81
52656;SHT85;35474;51.032;6.998;2022-07-05T00:39:41;18.23;66.16
52656;SHT85;35474;51.032;6.998;2022-07-05T00:42:08;18.12;66.13
52656;SHT85;35474;51.032;6.998;2022-07-05T00:44:36;18.13;66.42
52656;SHT85;35474;51.032;6.998;2022-07-05T00:47:06;18.15;66.36
52656;SHT85;35474;51.032;6.998;2022-07-05T00:49:34;18.16;66.05
52656;SHT85;35474;51.032;6.998;2022-07-05T00:52:02;18.01;66.69
52656;SHT85;35474;51.032;6.998;2022-07-05T00:54:46;18.04;66.88
52656;SHT85;35474;51.032;6.998;2022-07-05T00:57:13;18.09;66.86
52656;SHT85;35474;51.032;6.998;2022-07-05T00:59:40;18.04;66.72
52656;SHT85;35474;51.032;6.998;2022-07-05T01:02:07;17.79;67.31
52656;SHT85;35474;51.032;6.998;2022-07-05T01:04:33;17.69;67.73
52656;SHT85;35474;51.032;6.998;2022-07-05T01:07:00;17.68;67.87
52656;SHT85;35474;51.032;6.998;2022-07-05T01:09:29;17.74;67.65
52656;SHT85;35474;51.032;6.998;2022-07-05T01:11:56;17.74;67.62
52656;SHT85;35474;51.032;6.998;2022-07-05T01:14:23;17.78;67.53
52656;SHT85;35474;51.032;6.998;2022-07-05T01:16:50;17.69;67.78
52656;SHT85;35474;51.032;6.998;2022-07-05T01:19:19;17.62;68.15
52656;SHT85;35474;51.032;6.998;2022-07-05T01:21:46;17.55;68.04
52656;SHT85;35474;51.032;6.998;2022-07-05T01:24:15;17.57;68.39
52656;SHT85;35474;51.032;6.998;2022-07-05T01:26:44;17.61;68.11
52656;SHT85;35474;51.032;6.998;2022-07-05T01:29:12;17.67;67.98
52656;SHT85;35474;51.032;6.998;2022-07-05T01:31:39;17.65;67.83
52656;SHT85;35474;51.032;6.998;2022-07-05T01:34:06;17.68;67.77
52656;SHT85;35474;51.032;6.998;2022-07-05T01:36:34;17.55;67.97
52656;SHT85;35474;51.032;6.998;2022-07-05T01:39:02;17.57;67.94
52656;SHT85;35474;51.032;6.998;2022-07-05T01:41:30;17.41;68.24
52656;SHT85;35474;51.032;6.998;2022-07-05T01:43:57;17.51;68.21
52656;SHT85;35474;51.032;6.998;2022-07-05T01:46:24;17.54;68.04
52656;SHT85;35474;51.032;6.998;2022-07-05T01:48:56;17.43;68.18
52656;SHT85;35474;51.032;6.998;2022-07-05T01:51:29;17.48;68.16
52656;SHT85;35474;51.032;6.998;2022-07-05T01:54:00;17.34;68.64
52656;SHT85;35474;51.032;6.998;2022-07-05T01:56:26;17.21;69.02
52656;SHT85;35474;51.032;6.998;2022-07-05T01:58:53;17.27;68.95
52656;SHT85;35474;51.032;6.998;2022-07-05T02:01:36;17.23;68.92
52656;SHT85;35474;51.032;6.998;2022-07-05T02:04:05;17.11;69.05
52656;SHT85;35474;51.032;6.998;2022-07-05T02:06:34;17.13;69.41
52656;SHT85;35474;51.032;6.998;2022-07-05T02:09:02;17.26;68.90
52656;SHT85;35474;51.032;6.998;2022-07-05T02:11:30;17.33;68.55
52656;SHT85;35474;51.032;6.998;2022-07-05T02:13:57;17.20;68.96
52656;SHT85;35474;51.032;6.998;2022-07-05T02:16:24;17.07;69.36
52656;SHT85;35474;51.032;6.998;2022-07-05T02:18:52;17.11;69.41
52656;SHT85;35474;51.032;6.998;2022-07-05T02:21:19;17.29;68.79
52656;SHT85;35474;51.032;6.998;2022-07-05T02:23:45;17.26;68.64
52656;SHT85;35474;51.032;6.998;2022-07-05T02:26:12;17.23;68.79
52656;SHT85;35474;51.032;6.998;2022-07-05T02:28:38;17.30;68.59
52656;SHT85;35474;51.032;6.998;2022-07-05T02:31:05;17.33;68.40
52656;SHT85;35474;51.032;6.998;2022-07-05T02:33:32;17.43;68.14
52656;SHT85;35474;51.032;6.998;2022-07-05T02:36:20;17.47;67.91
52656;SHT85;35474;51.032;6.998;2022-07-05T02:38:45;17.57;67.72
52656;SHT85;35474;51.032;6.998;2022-07-05T02:41:12;17.54;67.64
52656;SHT85;35474;51.032;6.998;2022-07-05T02:43:38;17.27;68.37
52656;SHT85;35474;51.032;6.998;2022-07-05T02:46:06;17.07;69.12
52656;SHT85;35474;51.032;6.998;2022-07-05T02:48:34;16.83;70.03
52656;SHT85;35474;51.032;6.998;2022-07-05T02:51:02;16.76;70.47
52656;SHT85;35474;51.032;6.998;2022-07-05T02:53:29;16.67;70.75
52656;SHT85;35474;51.032;6.998;2022-07-05T02:55:57;16.68;70.64
52656;SHT85;35474;51.032;6.998;2022-07-05T02:58:23;16.61;71.19
52656;SHT85;35474;51.032;6.998;2022-07-05T03:00:50;16.49;71.73
52656;SHT85;35474;51.032;6.998;2022-07-05T03:03:16;16.42;72.05
52656;SHT85;35474;51.032;6.998;2022-07-05T03:05:43;16.51;71.86
52656;SHT85;35474;51.032;6.998;2022-07-05T03:08:10;16.51;71.72
52656;SHT85;35474;51.032;6.998;2022-07-05T03:10:37;16.48;71.76
52656;SHT85;35474;51.032;6.998;2022-07-05T03:13:03;16.59;71.32
52656;SHT85;35474;51.032;6.998;2022-07-05T03:15:30;16.42;71.82
52656;SHT85;35474;51.032;6.998;2022-07-05T03:17:57;16.37;72.13
52656;SHT85;35474;51.032;6.998;2022-07-05T03:20:23;16.40;72.07
52656;SHT85;35474;51.032;6.998;2022-07-05T03:22:50;16.44;72.18
52656;SHT85;35474;51.032;6.998;2022-07-05T03:25:17;16.62;71.56
52656;SHT85;35474;51.032;6.998;2022-07-05T03:27:43;16.68;71.30
52656;SHT85;35474;51.032;6.998;2022-07-05T03:30:11;16.65;71.19
52656;SHT85;35474;51.032;6.998;2022-07-05T03:32:37;16.40;71.82
52656;SHT85;35474;51.032;6.998;2022-07-05T03:35:04;16.20;72.67
52656;SHT85;35474;51.032;6.998;2022-07-05T03:37:31;16.27;72.59
52656;SHT85;35474;51.032;6.998;2022-07-05T03:39:58;16.32;72.40
52656;SHT85;35474;51.032;6.998;2022-07-05T03:42:24;16.41;71.83
52656;SHT85;35474;51.032;6.998;2022-07-05T03:44:51;16.32;71.90
52656;SHT85;35474;51.032;6.998;2022-07-05T03:47:19;16.41;71.93
52656;SHT85;35474;51.032;6.998;2022-07-05T03:49:46;16.59;71.38
52656;SHT85;35474;51.032;6.998;2022-07-05T03:52:13;16.42;71.82
52656;SHT85;35474;51.032;6.998;2022-07-05T03:54:40;16.30;72.45
52656;SHT85;35474;51.032;6.998;2022-07-05T03:57:07;16.27;72.30
52656;SHT85;35474;51.032;6.998;2022-07-05T03:59:33;16.17;72.68
52656;SHT85;35474;51.032;6.998;2022-07-05T04:02:00;16.27;72.81
52656;SHT85;35474;51.032;6.998;2022-07-05T04:04:27;16.75;71.02
52656;SHT85;35474;51.032;6.998;2022-07-05T04:06:54;16.78;70.88
52656;SHT85;35474;51.032;6.998;2022-07-05T04:09:21;16.95;70.32
52656;SHT85;35474;51.032;6.998;2022-07-05T04:11:47;17.02;70.05
52656;SHT85;35474;51.032;6.998;2022-07-05T04:14:14;17.09;70.09
52656;SHT85;35474;51.032;6.998;2022-07-05T04:16:41;17.17;69.70
52656;SHT85;35474;51.032;6.998;2022-07-05T04:19:07;17.23;69.72
52656;SHT85;35474;51.032;6.998;2022-07-05T04:21:34;17.37;69.38
52656;SHT85;35474;51.032;6.998;2022-07-05T04:24:01;17.38;69.19
52656;SHT85;35474;51.032;6.998;2022-07-05T04:26:28;17.29;69.37
52656;SHT85;35474;51.032;6.998;2022-07-05T04:28:55;17.30;69.32
52656;SHT85;35474;51.032;6.998;2022-07-05T04:31:23;17.43;69.08
52656;SHT85;35474;51.032;6.998;2022-07-05T04:33:50;17.64;68.58
52656;SHT85;35474;51.032;6.998;2022-07-05T04:36:17;17.69;68.08
52656;SHT85;35474;51.032;6.998;2022-07-05T04:38:43;17.74;68.04
52656;SHT85;35474;51.032;6.998;2022-07-05T04:41:10;17.69;67.81
52656;SHT85;35474;51.032;6.998;2022-07-05T04:43:36;17.68;67.61
52656;SHT85;35474;51.032;6.998;2022-07-05T04:46:03;17.58;68.04
52656;SHT85;35474;51.032;6.998;2022-07-05T04:48:29;17.47;68.30
52656;SHT85;35474;51.032;6.998;2022-07-05T04:50:56;17.41;68.27
52656;SHT85;35474;51.032;6.998;2022-07-05T04:53:23;17.33;68.88
52656;SHT85;35474;51.032;6.998;2022-07-05T04:55:49;17.11;69.40
52656;SHT85;35474;51.032;6.998;2022-07-05T04:58:16;17.20;69.10
52656;SHT85;35474;51.032;6.998;2022-07-05T05:00:42;17.26;69.03
52656;SHT85;35474;51.032;6.998;2022-07-05T05:03:09;17.27;69.63
52656;SHT85;35474;51.032;6.998;2022-07-05T05:05:35;17.17;69.97
52656;SHT85;35474;51.032;6.998;2022-07-05T05:08:02;17.16;69.94
52656;SHT85;35474;51.032;6.998;2022-07-05T05:10:29;17.14;70.06
52656;SHT85;35474;51.032;6.998;2022-07-05T05:12:55;17.19;69.46
52656;SHT85;35474;51.032;6.998;2022-07-05T05:15:21;17.27;68.57
52656;SHT85;35474;51.032;6.998;2022-07-05T05:17:48;17.17;68.47
52656;SHT85;35474;51.032;6.998;2022-07-05T05:20:18;17.33;68.30
52656;SHT85;35474;51.032;6.998;2022-07-05T05:22:45;17.36;68.03
52656;SHT85;35474;51.032;6.998;2022-07-05T05:25:12;17.41;67.82
52656;SHT85;35474;51.032;6.998;2022-07-05T05:27:42;17.51;66.76
52656;SHT85;35474;51.032;6.998;2022-07-05T05:30:14;17.62;66.24
52656;SHT85;35474;51.032;6.998;2022-07-05T05:32:45;17.82;65.76
52656;SHT85;35474;51.032;6.998;2022-07-05T05:35:12;17.94;65.24
52656;SHT85;35474;51.032;6.998;2022-07-05T05:37:48;18.01;64.80
52656;SHT85;35474;51.032;6.998;2022-07-05T05:40:20;18.06;64.63
52656;SHT85;35474;51.032;6.998;2022-07-05T05:42:48;18.16;65.08
52656;SHT85;35474;51.032;6.998;2022-07-05T05:45:16;18.12;64.64
52656;SHT85;35474;51.032;6.998;2022-07-05T05:47:45;18.09;64.48
52656;SHT85;35474;51.032;6.998;2022-07-05T05:50:13;18.12;64.49
52656;SHT85;35474;51.032;6.998;2022-07-05T05:52:39;18.12;64.87
52656;SHT85;35474;51.032;6.998;2022-07-05T05:55:06;18.32;64.18
52656;SHT85;35474;51.032;6.998;2022-07-05T05:57:33;18.29;64.09
52656;SHT85;35474;51.032;6.998;2022-07-05T06:00:00;18.26;64.19
52656;SHT85;35474;51.032;6.998;2022-07-05T06:02:26;18.37;63.98
52656;SHT85;35474;51.032;6.998;2022-07-05T06:04:53;18.43;63.89
52656;SHT85;35474;51.032;6.998;2022-07-05T06:07:19;18.50;63.69
52656;SHT85;35474;51.032;6.998;2022-07-05T06:09:46;18.57;63.21
52656;SHT85;35474;51.032;6.998;2022-07-05T06:12:13;18.66;63.26
52656;SHT85;35474;51.032;6.998;2022-07-05T06:14:40;18.77;62.78
52656;SHT85;35474;51.032;6.998;2022-07-05T06:17:06;18.84;62.66
52656;SHT85;35474;51.032;6.998;2022-07-05T06:19:33;18.92;62.46
52656;SHT85;35474;51.032;6.998;2022-07-05T06:21:59;18.99;62.35
52656;SHT85;35474;51.032;6.998;2022-07-05T06:24:26;19.15;61.64
52656;SHT85;35474;51.032;6.998;2022-07-05T06:26:52;19.26;61.14
52656;SHT85;35474;51.032;6.998;2022-07-05T06:33:34;19.25;60.65
52656;SHT85;35474;51.032;6.998;2022-07-05T06:36:01;19.36;60.41
52656;SHT85;35474;51.032;6.998;2022-07-05T06:38:27;19.50;59.63
52656;SHT85;35474;51.032;6.998;2022-07-05T06:40:54;19.60;59.08
52656;SHT85;35474;51.032;6.998;2022-07-05T06:43:23;19.60;59.43
52656;SHT85;35474;51.032;6.998;2022-07-05T06:45:49;19.80;59.22
52656;SHT85;35474;51.032;6.998;2022-07-05T06:48:16;19.80;58.86
52656;SHT85;35474;51.032;6.998;2022-07-05T06:50:43;19.90;58.56
52656;SHT85;35474;51.032;6.998;2022-07-05T06:53:10;19.84;57.32
52656;SHT85;35474;51.032;6.998;2022-07-05T06:55:38;19.90;57.49
52656;SHT85;35474;51.032;6.998;2022-07-05T06:58:18;20.13;57.90
52656;SHT85;35474;51.032;6.998;2022-07-05T07:00:45;20.28;55.90
52656;SHT85;35474;51.032;6.998;2022-07-05T07:03:31;20.36;54.58
52656;SHT85;35474;51.032;6.998;2022-07-05T07:06:19;20.22;55.48
52656;SHT85;35474;51.032;6.998;2022-07-05T07:08:46;20.38;56.06
52656;SHT85;35474;51.032;6.998;2022-07-05T07:11:30;20.41;56.03
52656;SHT85;35474;51.032;6.998;2022-07-05T07:13:57;20.46;55.82
52656;SHT85;35474;51.032;6.998;2022-07-05T07:16:24;20.48;55.57
52656;SHT85;35474;51.032;6.998;2022-07-05T07:18:50;20.46;54.94
52656;SHT85;35474;51.032;6.998;2022-07-05T07:21:37;20.41;54.98
52656;SHT85;35474;51.032;6.998;2022-07-05T07:24:04;20.26;54.69
52656;SHT85;35474;51.032;6.998;2022-07-05T07:26:32;20.34;54.60
52656;SHT85;35474;51.032;6.998;2022-07-05T07:29:18;20.52;54.24
52656;SHT85;35474;51.032;6.998;2022-07-05T07:31:45;20.46;54.79
52656;SHT85;35474;51.032;6.998;2022-07-05T07:34:11;20.28;56.53
52656;SHT85;35474;51.032;6.998;2022-07-05T07:36:38;20.34;57.02
52656;SHT85;35474;51.032;6.998;2022-07-05T07:39:04;20.49;56.25
52656;SHT85;35474;51.032;6.998;2022-07-05T07:41:31;20.72;54.64
52656;SHT85;35474;51.032;6.998;2022-07-05T07:43:57;20.46;55.08
52656;SHT85;35474;51.032;6.998;2022-07-05T07:46:25;20.32;55.79
52656;SHT85;35474;51.032;6.998;2022-07-05T07:48:53;20.56;55.90
52656;SHT85;35474;51.032;6.998;2022-07-05T07:51:20;20.65;56.01
52656;SHT85;35474;51.032;6.998;2022-07-05T07:53:47;20.94;55.63
52656;SHT85;35474;51.032;6.998;2022-07-05T07:56:14;21.07;54.87
52656;SHT85;35474;51.032;6.998;2022-07-05T07:58:41;21.16;53.08
52656;SHT85;35474;51.032;6.998;2022-07-05T08:01:07;21.02;52.52
52656;SHT85;35474;51.032;6.998;2022-07-05T08:03:37;21.13;52.87
52656;SHT85;35474;51.032;6.998;2022-07-05T08:06:04;21.38;52.42
52656;SHT85;35474;51.032;6.998;2022-07-05T08:08:31;21.30;51.75
52656;SHT85;35474;51.032;6.998;2022-07-05T08:10:58;21.14;52.88
52656;SHT85;35474;51.032;6.998;2022-07-05T08:13:25;21.09;52.40
52656;SHT85;35474;51.032;6.998;2022-07-05T08:15:52;21.19;51.89
52656;SHT85;35474;51.032;6.998;2022-07-05T08:18:19;21.31;50.98
52656;SHT85;35474;51.032;6.998;2022-07-05T08:21:04;21.60;50.31
52656;SHT85;35474;51.032;6.998;2022-07-05T08:23:49;21.75;48.51
52656;SHT85;35474;51.032;6.998;2022-07-05T08:26:16;22.74;45.34
52656;SHT85;35474;51.032;6.998;2022-07-05T08:28:42;24.83;42.27
52656;SHT85;35474;51.032;6.998;2022-07-05T08:31:30;25.39;40.19
52656;SHT85;35474;51.032;6.998;2022-07-05T08:33:58;27.18;37.35
52656;SHT85;35474;51.032;6.998;2022-07-05T08:36:25;24.48;43.12
52656;SHT85;35474;51.032;6.998;2022-07-05T08:38:52;25.26;41.23
52656;SHT85;35474;51.032;6.998;2022-07-05T08:41:19;24.68;41.53
52656;SHT85;35474;51.032;6.998;2022-07-05T08:43:47;23.50;43.27
52656;SHT85;35474;51.032;6.998;2022-07-05T08:46:16;23.35;44.08
52656;SHT85;35474;51.032;6.998;2022-07-05T08:48:44;23.79;44.10
52656;SHT85;35474;51.032;6.998;2022-07-05T08:51:15;22.97;48.19
52656;SHT85;35474;51.032;6.998;2022-07-05T08:53:44;21.89;51.17
52656;SHT85;35474;51.032;6.998;2022-07-05T08:56:12;21.51;52.31
52656;SHT85;35474;51.032;6.998;2022-07-05T08:58:49;21.89;51.99
52656;SHT85;35474;51.032;6.998;2022-07-05T09:01:16;22.48;48.57
52656;SHT85;35474;51.032;6.998;2022-07-05T09:03:47;22.32;48.68
52656;SHT85;35474;51.032;6.998;2022-07-05T09:06:20;22.76;46.30
52656;SHT85;35474;51.032;6.998;2022-07-05T09:08:48;24.11;44.10
52656;SHT85;35474;51.032;6.998;2022-07-05T09:11:17;26.84;39.11
52656;SHT85;35474;51.032;6.998;2022-07-05T09:13:50;24.61;44.01
52656;SHT85;35474;51.032;6.998;2022-07-05T09:16:37;24.41;42.97
52656;SHT85;35474;51.032;6.998;2022-07-05T09:19:06;24.64;42.80
52656;SHT85;35474;51.032;6.998;2022-07-05T09:21:33;25.08;41.59
52656;SHT85;35474;51.032;6.998;2022-07-05T09:24:04;25.89;40.04
52656;SHT85;35474;51.032;6.998;2022-07-05T09:26:33;26.12;39.00
52656;SHT85;35474;51.032;6.998;2022-07-05T09:29:23;25.39;39.47
52656;SHT85;35474;51.032;6.998;2022-07-05T09:32:09;26.14;38.56
52656;SHT85;35474;51.032;6.998;2022-07-05T09:34:49;26.46;37.63
52656;SHT85;35474;51.032;6.998;2022-07-05T09:37:16;27.21;36.18
52656;SHT85;35474;51.032;6.998;2022-07-05T09:39:42;25.66;38.97
52656;SHT85;35474;51.032;6.998;2022-07-05T09:42:10;24.10;42.56
52656;SHT85;35474;51.032;6.998;2022-07-05T09:44:50;25.10;40.23
52656;SHT85;35474;51.032;6.998;2022-07-05T09:47:18;25.99;38.45
52656;SHT85;35474;51.032;6.998;2022-07-05T09:49:46;27.54;35.77
52656;SHT85;35474;51.032;6.998;2022-07-05T09:52:34;27.73;33.18
52656;SHT85;35474;51.032;6.998;2022-07-05T09:57:36;27.68;34.60
52656;SHT85;35474;51.032;6.998;2022-07-05T10:05:08;26.91;35.89
52656;SHT85;35474;51.032;6.998;2022-07-05T10:07:36;26.49;36.92
52656;SHT85;35474;51.032;6.998;2022-07-05T10:10:07;26.74;35.72
52656;SHT85;35474;51.032;6.998;2022-07-05T10:12:36;28.34;34.03
52656;SHT85;35474;51.032;6.998;2022-07-05T10:15:04;28.85;32.27
52656;SHT85;35474;51.032;6.998;2022-07-05T10:17:33;26.21;36.68
52656;SHT85;35474;51.032;6.998;2022-07-05T10:20:16;25.03;38.26
52656;SHT85;35474;51.032;6.998;2022-07-05T10:22:46;23.84;39.84
52656;SHT85;35474;51.032;6.998;2022-07-05T10:25:13;25.27;38.00
52656;SHT85;35474;51.032;6.998;2022-07-05T10:27:41;27.10;35.72
52656;SHT85;35474;51.032;6.998;2022-07-05T10:30:08;28.04;32.77
52656;SHT85;35474;51.032;6.998;2022-07-05T10:32:36;25.26;37.26
52656;SHT85;35474;51.032;6.998;2022-07-05T10:35:05;24.41;39.17
52656;SHT85;35474;51.032;6.998;2022-07-05T10:37:33;22.98;42.51
52656;SHT85;35474;51.032;6.998;2022-07-05T10:40:02;22.88;43.08
52656;SHT85;35474;51.032;6.998;2022-07-05T10:42:50;22.76;43.64
52656;SHT85;35474;51.032;6.998;2022-07-05T10:45:28;23.65;42.10
52656;SHT85;35474;51.032;6.998;2022-07-05T10:48:11;26.37;37.32
52656;SHT85;35474;51.032;6.998;2022-07-05T10:50:45;27.88;34.68
52656;SHT85;35474;51.032;6.998;2022-07-05T10:53:23;27.59;34.92
52656;SHT85;35474;51.032;6.998;2022-07-05T10:55:55;28.95;33.11
52656;SHT85;35474;51.032;6.998;2022-07-05T10:58:26;27.97;34.69
52656;SHT85;35474;51.032;6.998;2022-07-05T11:03:42;26.33;37.51
52656;SHT85;35474;51.032;6.998;2022-07-05T11:11:30;24.34;42.03
52656;SHT85;35474;51.032;6.998;2022-07-05T11:22:26;26.95;37.57
52656;SHT85;35474;51.032;6.998;2022-07-05T11:24:53;27.54;35.84
52656;SHT85;35474;51.032;6.998;2022-07-05T11:27:21;26.57;37.48
52656;SHT85;35474;51.032;6.998;2022-07-05T11:35:11;27.79;34.66
52656;SHT85;35474;51.032;6.998;2022-07-05T11:38:25;28.82;33.20
52656;SHT85;35474;51.032;6.998;2022-07-05T11:40:50;26.84;35.99
52656;SHT85;35474;51.032;6.998;2022-07-05T11:43:25;25.82;38.05
52656;SHT85;35474;51.032;6.998;2022-07-05T11:45:58;26.91;35.60
52656;SHT85;35474;51.032;6.998;2022-07-05T11:48:29;26.07;36.96
52656;SHT85;35474;51.032;6.998;2022-07-05T11:50:55;27.05;35.08
52656;SHT85;35474;51.032;6.998;2022-07-05T11:53:27;25.40;37.12
52656;SHT85;35474;51.032;6.998;2022-07-05T11:56:15;24.76;38.71
52656;SHT85;35474;51.032;6.998;2022-07-05T11:58:41;25.06;38.02
52656;SHT85;35474;51.032;6.998;2022-07-05T12:01:08;26.46;35.17
52656;SHT85;35474;51.032;6.998;2022-07-05T12:03:34;26.28;34.96
52656;SHT85;35474;51.032;6.998;2022-07-05T12:06:11;24.89;34.33
52656;SHT85;35474;51.032;6.998;2022-07-05T12:08:41;26.49;31.75
52656;SHT85;35474;51.032;6.998;2022-07-05T12:11:11;25.74;34.67
52656;SHT85;35474;51.032;6.998;2022-07-05T12:13:57;26.08;34.47
52656;SHT85;35474;51.032;6.998;2022-07-05T12:16:23;28.24;32.30
52656;SHT85;35474;51.032;6.998;2022-07-05T12:18:53;26.50;35.06
52656;SHT85;35474;51.032;6.998;2022-07-05T12:21:22;25.31;37.26
52656;SHT85;35474;51.032;6.998;2022-07-05T12:23:50;25.70;36.73
52656;SHT85;35474;51.032;6.998;2022-07-05T12:26:18;25.88;36.52
52656;SHT85;35474;51.032;6.998;2022-07-05T12:28:46;26.49;35.70
52656;SHT85;35474;51.032;6.998;2022-07-05T12:31:19;26.76;35.42
52656;SHT85;35474;51.032;6.998;2022-07-05T12:33:48;27.20;34.13
52656;SHT85;35474;51.032;6.998;2022-07-05T12:36:16;25.82;35.48
52656;SHT85;35474;51.032;6.998;2022-07-05T12:38:46;27.01;33.57
52656;SHT85;35474;51.032;6.998;2022-07-05T12:41:20;25.68;35.74
52656;SHT85;35474;51.032;6.998;2022-07-05T12:43:52;25.51;37.02
52656;SHT85;35474;51.032;6.998;2022-07-05T12:46:21;26.55;35.27
52656;SHT85;35474;51.032;6.998;2022-07-05T12:49:08;25.73;36.60
52656;SHT85;35474;51.032;6.998;2022-07-05T12:51:37;25.77;37.12
52656;SHT85;35474;51.032;6.998;2022-07-05T12:54:18;26.21;35.89
52656;SHT85;35474;51.032;6.998;2022-07-05T12:57:04;25.98;36.86
52656;SHT85;35474;51.032;6.998;2022-07-05T12:59:59;26.70;35.76
52656;SHT85;35474;51.032;6.998;2022-07-05T13:02:36;27.03;34.89
52656;SHT85;35474;51.032;6.998;2022-07-05T13:05:05;29.09;32.11
52656;SHT85;35474;51.032;6.998;2022-07-05T13:07:43;28.96;31.58
52656;SHT85;35474;51.032;6.998;2022-07-05T13:10:17;25.78;35.57
52656;SHT85;35474;51.032;6.998;2022-07-05T13:12:45;26.18;35.83
52656;SHT85;35474;51.032;6.998;2022-07-05T13:15:13;26.39;35.50
52656;SHT85;35474;51.032;6.998;2022-07-05T13:17:41;28.37;31.82
52656;SHT85;35474;51.032;6.998;2022-07-05T13:20:08;29.29;31.50
52656;SHT85;35474;51.032;6.998;2022-07-05T13:22:35;28.39;32.53
52656;SHT85;35474;51.032;6.998;2022-07-05T13:25:02;28.17;33.28
52656;SHT85;35474;51.032;6.998;2022-07-05T13:27:29;27.99;33.38
52656;SHT85;35474;51.032;6.998;2022-07-05T13:29:56;27.97;32.96
52656;SHT85;35474;51.032;6.998;2022-07-05T13:32:23;28.21;32.67
52656;SHT85;35474;51.032;6.998;2022-07-05T13:34:49;28.81;31.66
52656;SHT85;35474;51.032;6.998;2022-07-05T13:37:16;27.49;34.40
52656;SHT85;35474;51.032;6.998;2022-07-05T13:39:43;27.11;34.32
52656;SHT85;35474;51.032;6.998;2022-07-05T13:42:09;27.52;33.88
52656;SHT85;35474;51.032;6.998;2022-07-05T13:44:36;26.69;34.73
52656;SHT85;35474;51.032;6.998;2022-07-05T13:47:03;25.50;36.34
52656;SHT85;35474;51.032;6.998;2022-07-05T13:49:30;26.33;35.97
52656;SHT85;35474;51.032;6.998;2022-07-05T13:51:57;27.72;33.97
52656;SHT85;35474;51.032;6.998;2022-07-05T13:54:26;27.62;33.56
52656;SHT85;35474;51.032;6.998;2022-07-05T13:56:56;26.70;34.91
52656;SHT85;35474;51.032;6.998;2022-07-05T13:59:22;25.85;36.18
52656;SHT85;35474;51.032;6.998;2022-07-05T14:01:49;25.71;36.99
52656;SHT85;35474;51.032;6.998;2022-07-05T14:04:16;26.05;36.34
52656;SHT85;35474;51.032;6.998;2022-07-05T14:06:43;26.21;36.31
52656;SHT85;35474;51.032;6.998;2022-07-05T14:09:09;24.95;37.56
52656;SHT85;35474;51.032;6.998;2022-07-05T14:11:36;25.95;36.44
52656;SHT85;35474;51.032;6.998;2022-07-05T14:14:03;26.24;35.97
52656;SHT85;35474;51.032;6.998;2022-07-05T14:16:29;26.76;35.06
52656;SHT85;35474;51.032;6.998;2022-07-05T14:18:56;26.76;34.50
52656;SHT85;35474;51.032;6.998;2022-07-05T14:21:22;27.73;32.95
52656;SHT85;35474;51.032;6.998;2022-07-05T14:24:03;27.10;33.66
52656;SHT85;35474;51.032;6.998;2022-07-05T14:26:30;27.59;32.78
52656;SHT85;35474;51.032;6.998;2022-07-05T14:28:57;25.95;36.04
52656;SHT85;35474;51.032;6.998;2022-07-05T14:31:23;27.27;34.08
52656;SHT85;35474;51.032;6.998;2022-07-05T14:33:50;29.02;31.17
52656;SHT85;35474;51.032;6.998;2022-07-05T14:36:17;26.94;35.09
52656;SHT85;35474;51.032;6.998;2022-07-05T14:38:45;28.29;32.12
52656;SHT85;35474;51.032;6.998;2022-07-05T14:41:11;28.84;31.75
52656;SHT85;35474;51.032;6.998;2022-07-05T14:43:39;28.56;32.43
52656;SHT85;35474;51.032;6.998;2022-07-05T14:46:05;28.78;31.14
52656;SHT85;35474;51.032;6.998;2022-07-05T14:48:34;28.10;32.02
52656;SHT85;35474;51.032;6.998;2022-07-05T14:51:00;26.47;34.38
52656;SHT85;35474;51.032;6.998;2022-07-05T14:53:27;27.30;33.19
52656;SHT85;35474;51.032;6.998;2022-07-05T14:55:53;26.52;33.64
52656;SHT85;35474;51.032;6.998;2022-07-05T14:58:21;26.84;33.54
52656;SHT85;35474;51.032;6.998;2022-07-05T15:00:47;28.03;32.59
52656;SHT85;35474;51.032;6.998;2022-07-05T15:03:14;26.79;33.78
52656;SHT85;35474;51.032;6.998;2022-07-05T15:05:41;26.26;34.31
52656;SHT85;35474;51.032;6.998;2022-07-05T15:08:08;26.95;34.95
52656;SHT85;35474;51.032;6.998;2022-07-05T15:10:34;28.23;32.65
52656;SHT85;35474;51.032;6.998;2022-07-05T15:13:01;27.49;33.94
52656;SHT85;35474;51.032;6.998;2022-07-05T15:15:27;27.38;32.92
52656;SHT85;35474;51.032;6.998;2022-07-05T15:17:54;27.71;33.50
52656;SHT85;35474;51.032;6.998;2022-07-05T15:20:23;28.72;31.77
52656;SHT85;35474;51.032;6.998;2022-07-05T15:22:50;29.20;30.91
52656;SHT85;35474;51.032;6.998;2022-07-05T15:25:16;28.63;31.09
52656;SHT85;35474;51.032;6.998;2022-07-05T15:27:43;28.26;31.86
52656;SHT85;35474;51.032;6.998;2022-07-05T15:30:10;27.49;33.73
52656;SHT85;35474;51.032;6.998;2022-07-05T15:32:38;26.53;34.50
52656;SHT85;35474;51.032;6.998;2022-07-05T15:35:05;25.66;35.95
52656;SHT85;35474;51.032;6.998;2022-07-05T15:37:31;24.88;36.88
52656;SHT85;35474;51.032;6.998;2022-07-05T15:39:58;24.61;37.64
52656;SHT85;35474;51.032;6.998;2022-07-05T15:42:25;25.43;37.48
52656;SHT85;35474;51.032;6.998;2022-07-05T15:44:52;25.55;38.32
52656;SHT85;35474;51.032;6.998;2022-07-05T15:47:28;26.19;38.43
52656;SHT85;35474;51.032;6.998;2022-07-05T15:49:54;27.14;37.32
52656;SHT85;35474;51.032;6.998;2022-07-05T15:52:21;27.51;37.72
52656;SHT85;35474;51.032;6.998;2022-07-05T15:54:48;27.83;37.21
52656;SHT85;35474;51.032;6.998;2022-07-05T15:57:16;27.07;38.59
52656;SHT85;35474;51.032;6.998;2022-07-05T15:59:44;26.40;39.79
52656;SHT85;35474;51.032;6.998;2022-07-05T16:02:11;26.09;39.49
52656;SHT85;35474;51.032;6.998;2022-07-05T16:04:37;25.58;41.29
52656;SHT85;35474;51.032;6.998;2022-07-05T16:07:04;24.64;42.13
52656;SHT85;35474;51.032;6.998;2022-07-05T16:09:30;25.09;42.62
52656;SHT85;35474;51.032;6.998;2022-07-05T16:11:57;24.75;42.57
52656;SHT85;35474;51.032;6.998;2022-07-05T16:14:23;24.61;44.05